Time;durP1;ratioP1;P1;durP2;ratioP2;P2;SDS_P1;SDS_P2;PMS_P1;PMS_P2;Temp;Humidity;BMP_temperature;BMP_pressure;BME280_temperature;BME280_humidity;BME280_pressure;Samples;Min_cycle;Max_cycle;Signal;HPM_P1;HPM_P2
2021/06/29 00:01:42;;;;;;;0.80;0.70;;;20.30;99.90;;;-143.50;100.00;58913.53;4992547;28;20457;-73
2021/06/29 00:04:11;;;;;;;0.70;0.60;;;20.30;99.90;;;-143.50;100.00;58913.53;4994416;28;20991;-73
2021/06/29 00:06:38;;;;;;;0.70;0.60;;;20.30;99.90;;;-143.50;100.00;58913.53;4992733;28;20438;-73
2021/06/29 00:09:05;;;;;;;0.70;0.60;;;20.40;99.90;;;-143.50;100.00;58913.53;4993585;28;20466;-73
2021/06/29 00:11:33;;;;;;;0.80;0.70;;;20.40;99.90;;;-143.50;100.00;58913.53;4994273;28;20390;-73
2021/06/29 00:14:01;;;;;;;0.73;0.60;;;20.40;99.90;;;-143.50;100.00;58913.53;4993621;28;20937;-73
2021/06/29 00:16:28;;;;;;;0.80;0.70;;;20.50;99.90;;;-143.50;100.00;58913.53;4992568;28;20491;-74
2021/06/29 00:18:55;;;;;;;0.77;0.70;;;20.60;99.90;;;-143.50;100.00;58913.53;4993472;28;20790;-72
2021/06/29 00:21:24;;;;;;;0.70;0.70;;;20.80;99.90;;;-143.50;100.00;58913.53;4993276;28;20451;-72
2021/06/29 00:23:51;;;;;;;0.80;0.70;;;20.80;99.90;;;-143.50;100.00;58913.53;4993550;28;21050;-72
2021/06/29 00:26:19;;;;;;;0.80;0.70;;;20.50;99.90;;;-143.50;100.00;58913.53;4993217;28;20508;-73
2021/06/29 00:28:46;;;;;;;0.80;0.70;;;20.30;99.90;;;-143.50;100.00;58913.53;4994485;28;20937;-74
2021/06/29 00:31:15;;;;;;;0.70;0.60;;;20.00;99.90;;;-143.50;100.00;58913.53;4993576;28;20526;-75
2021/06/29 00:33:42;;;;;;;0.70;0.70;;;19.80;99.90;;;-143.50;100.00;58913.53;4994992;28;20405;-75
2021/06/29 00:36:14;;;;;;;0.77;0.70;;;19.70;99.90;;;-143.50;100.00;58913.53;4994576;28;20473;-75
2021/06/29 00:38:44;;;;;;;0.70;0.60;;;19.60;99.90;;;-143.50;100.00;58913.53;4992118;28;20464;-74
2021/06/29 00:41:12;;;;;;;0.80;0.70;;;19.50;99.90;;;-143.50;100.00;58913.53;4994506;28;20415;-75
2021/06/29 00:43:45;;;;;;;0.70;0.70;;;19.50;99.90;;;-143.50;100.00;58913.53;4992552;28;20847;-74
2021/06/29 00:46:14;;;;;;;0.70;0.60;;;19.40;99.90;;;-143.50;100.00;58913.53;4992531;28;20430;-74
2021/06/29 00:48:42;;;;;;;0.70;0.60;;;19.30;99.90;;;-143.50;100.00;58913.53;4993785;28;20554;-74
2021/06/29 00:51:12;;;;;;;0.80;0.70;;;19.30;99.90;;;-143.50;100.00;58913.53;4991846;28;20451;-74
2021/06/29 00:53:43;;;;;;;0.80;0.70;;;19.20;99.90;;;-143.50;100.00;58913.53;4992970;28;20465;-74
2021/06/29 00:56:19;;;;;;;0.70;0.60;;;19.20;99.90;;;-143.50;100.00;58913.53;4993256;28;20445;-74
2021/06/29 00:58:48;;;;;;;0.80;0.70;;;19.20;99.90;;;-143.50;100.00;58913.53;4992906;28;20903;-74
2021/06/29 01:01:16;;;;;;;0.80;0.70;;;19.20;99.90;;;-143.50;100.00;58913.53;4993756;28;20438;-74
2021/06/29 01:03:44;;;;;;;0.70;0.70;;;19.20;99.90;;;-143.50;100.00;58913.53;4992023;28;20847;-74
2021/06/29 01:06:14;;;;;;;0.80;0.80;;;19.20;99.90;;;-143.50;100.00;58913.53;4975246;28;20463;-74
2021/06/29 01:08:43;;;;;;;0.80;0.70;;;19.10;99.90;;;-143.50;100.00;58913.53;4992929;28;21035;-73
2021/06/29 01:11:12;;;;;;;0.70;0.70;;;19.10;99.90;;;-143.50;100.00;58913.53;4992200;28;20652;-74
2021/06/29 01:13:42;;;;;;;0.70;0.70;;;19.20;99.90;;;-143.50;100.00;58913.53;4993006;28;20503;-74
2021/06/29 01:16:10;;;;;;;1.00;0.90;;;19.20;99.90;;;-143.50;100.00;58913.53;4991799;28;20997;-74
2021/06/29 01:18:42;;;;;;;0.80;0.70;;;19.20;99.90;;;-143.50;100.00;58913.53;4992108;28;20534;-74
2021/06/29 01:21:15;;;;;;;0.70;0.60;;;19.10;99.90;;;-143.50;100.00;58913.53;4993614;28;20501;-74
2021/06/29 01:23:50;;;;;;;0.70;0.60;;;19.10;99.90;;;-143.50;100.00;58913.53;4996915;28;20965;-73
2021/06/29 01:31:15;;;;;;;0.70;0.60;;;19.00;99.90;;;-143.50;100.00;58913.53;4996601;28;20465;-73
2021/06/29 01:33:45;;;;;;;0.70;0.60;;;19.00;99.90;;;-143.50;100.00;58913.53;5028183;28;20486;-73
2021/06/29 01:36:15;;;;;;;0.77;0.70;;;18.90;99.90;;;-143.50;100.00;58913.53;4996077;28;20419;-73
2021/06/29 01:38:44;;;;;;;0.80;0.70;;;18.90;99.90;;;-143.50;100.00;58913.53;4995679;28;20458;-73
2021/06/29 01:41:13;;;;;;;0.70;0.60;;;18.80;99.90;;;-143.50;100.00;58913.53;4997081;28;20452;-73
2021/06/29 01:43:46;;;;;;;0.80;0.70;;;18.80;99.90;;;-143.50;100.00;58913.53;4996864;28;20431;-73
2021/06/29 01:46:15;;;;;;;0.80;0.70;;;18.70;99.90;;;-143.50;100.00;58913.53;4979158;28;20515;-73
2021/06/29 01:48:47;;;;;;;0.70;0.60;;;18.60;99.90;;;-143.50;100.00;58913.53;4995750;28;20494;-73
2021/06/29 01:51:17;;;;;;;0.80;0.70;;;18.50;99.90;;;-143.50;100.00;58913.53;4995452;28;20846;-73
2021/06/29 01:53:47;;;;;;;0.70;0.70;;;18.50;99.90;;;-143.50;100.00;58913.53;4995685;28;20466;-73
2021/06/29 01:56:14;;;;;;;0.80;0.80;;;18.40;99.90;;;-143.50;100.00;58913.53;5028089;28;20505;-73
2021/06/29 01:58:43;;;;;;;0.70;0.60;;;18.30;99.90;;;-143.50;100.00;58913.53;5028105;28;20480;-73
2021/06/29 02:01:11;;;;;;;0.70;0.60;;;18.30;99.90;;;-143.50;100.00;58913.53;4996427;28;20518;-73
2021/06/29 02:03:38;;;;;;;0.70;0.60;;;18.30;99.90;;;-143.50;100.00;58913.53;4995011;28;20434;-73
2021/06/29 02:06:06;;;;;;;0.73;0.70;;;18.30;99.90;;;-143.50;100.00;58913.53;4995869;28;20431;-73
2021/06/29 02:08:36;;;;;;;0.70;0.60;;;18.30;99.90;;;-143.50;100.00;58913.53;4995947;28;20451;-74
2021/06/29 02:11:04;;;;;;;0.70;0.60;;;18.30;99.90;;;-143.50;100.00;58913.53;5027423;28;20515;-73
2021/06/29 02:13:32;;;;;;;1.10;1.00;;;18.30;99.90;;;-143.50;100.00;58913.53;4995641;28;20516;-73
2021/06/29 02:16:00;;;;;;;0.70;0.60;;;18.20;99.90;;;-143.50;100.00;58913.53;4994375;28;20454;-73
2021/06/29 02:18:28;;;;;;;0.70;0.70;;;18.20;99.90;;;-143.50;100.00;58913.53;4987792;28;20971;-73
2021/06/29 02:20:57;;;;;;;0.70;0.70;;;18.20;99.90;;;-143.50;100.00;58913.53;4995790;28;20422;-73
2021/06/29 02:23:25;;;;;;;0.70;0.60;;;18.10;99.90;;;-143.50;100.00;58913.53;4994959;28;20457;-73
2021/06/29 02:25:54;;;;;;;0.80;0.70;;;18.10;99.90;;;-143.50;100.00;58913.53;4996144;28;20499;-73
2021/06/29 02:28:21;;;;;;;0.80;0.70;;;18.00;99.90;;;-143.50;100.00;58913.53;4995274;28;20505;-73
2021/06/29 02:30:49;;;;;;;0.70;0.70;;;18.10;99.90;;;-143.50;100.00;58913.53;4995691;28;20454;-74
2021/06/29 02:33:16;;;;;;;0.70;0.70;;;18.10;99.90;;;-143.50;100.00;58913.53;4995592;28;20442;-73
2021/06/29 02:35:44;;;;;;;0.70;0.60;;;18.10;99.90;;;-143.50;100.00;58913.53;4995009;28;20496;-73
2021/06/29 02:38:11;;;;;;;0.70;0.60;;;18.20;99.90;;;-143.50;100.00;58913.53;4995268;28;20571;-73
2021/06/29 02:40:39;;;;;;;0.70;0.70;;;18.20;99.90;;;-143.50;100.00;58913.53;4995400;28;20417;-73
2021/06/29 02:43:08;;;;;;;0.70;0.60;;;18.30;99.90;;;-143.50;100.00;58913.53;4995006;28;20508;-73
2021/06/29 02:45:36;;;;;;;0.70;0.60;;;18.30;99.90;;;-143.50;100.00;58913.53;4996183;28;20429;-73
2021/06/29 02:48:05;;;;;;;0.70;0.60;;;18.20;99.90;;;-143.50;100.00;58913.53;4995334;28;20516;-73
2021/06/29 02:50:33;;;;;;;0.80;0.73;;;18.20;99.90;;;-143.50;100.00;58913.53;5027618;28;20449;-73
2021/06/29 02:53:00;;;;;;;0.70;0.60;;;18.20;99.90;;;-143.50;100.00;58913.53;4995379;28;20979;-73
2021/06/29 02:55:28;;;;;;;0.70;0.70;;;18.10;99.90;;;-143.50;100.00;58913.53;4994920;28;20458;-73
2021/06/29 02:57:55;;;;;;;0.70;0.60;;;18.10;99.90;;;-143.50;100.00;58913.53;4995319;28;20482;-74
2021/06/29 03:00:24;;;;;;;2.27;2.17;;;18.10;99.90;;;-143.50;100.00;58913.53;4995846;28;20522;-74
2021/06/29 03:02:52;;;;;;;0.80;0.70;;;18.10;99.90;;;-143.50;100.00;58913.53;4994624;28;20440;-74
2021/06/29 03:05:20;;;;;;;0.70;0.60;;;18.10;99.90;;;-143.50;100.00;58913.53;4995190;28;20413;-73
2021/06/29 03:07:48;;;;;;;0.80;0.70;;;18.10;99.90;;;-143.50;100.00;58913.53;5010011;28;20983;-74
2021/06/29 03:10:15;;;;;;;0.70;0.60;;;18.00;99.90;;;-143.50;100.00;58913.53;4993860;28;20981;-74
2021/06/29 03:12:43;;;;;;;0.80;0.70;;;18.00;99.90;;;-143.50;100.00;58913.53;4994317;28;20451;-74
2021/06/29 03:15:11;;;;;;;0.70;0.60;;;17.90;99.90;;;-143.50;100.00;58913.53;4993359;28;20479;-74
2021/06/29 03:17:40;;;;;;;0.73;0.70;;;17.90;99.90;;;-143.50;100.00;58913.53;4995051;28;20877;-73
2021/06/29 03:20:11;;;;;;;0.70;0.60;;;17.90;99.90;;;-143.50;100.00;58913.53;4994676;28;20451;-74
2021/06/29 03:22:40;;;;;;;0.70;0.60;;;17.90;99.90;;;-143.50;100.00;58913.53;4994613;28;20432;-74
2021/06/29 03:25:09;;;;;;;0.70;0.70;;;17.90;99.90;;;-143.50;100.00;58913.53;4994203;28;20473;-74
2021/06/29 03:27:37;;;;;;;0.70;0.60;;;17.80;99.90;;;-143.50;100.00;58913.53;4994840;28;20437;-74
2021/06/29 03:30:08;;;;;;;0.70;0.60;;;17.80;99.90;;;-143.50;100.00;58913.53;4993706;28;20501;-74
2021/06/29 03:32:36;;;;;;;0.70;0.70;;;17.80;99.90;;;-143.50;100.00;58913.53;4989477;28;20922;-73
2021/06/29 03:35:07;;;;;;;0.70;0.60;;;17.80;99.90;;;-143.50;100.00;58913.53;4994525;28;20948;-73
2021/06/29 03:37:38;;;;;;;0.70;0.67;;;17.80;99.90;;;-143.50;100.00;58913.53;4992789;28;20989;-74
2021/06/29 03:40:08;;;;;;;0.70;0.70;;;17.90;99.90;;;-143.50;100.00;58913.53;4993353;28;20481;-74
2021/06/29 03:42:35;;;;;;;0.70;0.70;;;17.80;99.90;;;-143.50;100.00;58913.53;4993825;28;20834;-74
2021/06/29 03:45:05;;;;;;;0.70;0.60;;;17.80;99.90;;;-143.50;100.00;58913.53;4993791;28;20436;-74
2021/06/29 03:47:32;;;;;;;0.70;0.60;;;17.80;99.90;;;-143.50;100.00;58913.53;4994680;28;20406;-74
2021/06/29 03:50:00;;;;;;;0.70;0.60;;;17.80;99.90;;;-143.50;100.00;58913.53;4993936;28;20519;-74
2021/06/29 03:52:30;;;;;;;0.70;0.60;;;17.80;99.90;;;-143.50;100.00;58913.53;4994259;28;20440;-73
2021/06/29 03:54:57;;;;;;;0.70;0.70;;;17.80;99.90;;;-143.50;100.00;58913.53;4974164;28;20522;-73
2021/06/29 03:57:25;;;;;;;0.70;0.60;;;17.80;99.90;;;-143.50;100.00;58913.53;4974849;28;20482;-74
2021/06/29 03:59:55;;;;;;;0.80;0.80;;;17.80;99.90;;;-143.50;100.00;58913.53;4975063;28;20421;-74
2021/06/29 04:02:23;;;;;;;0.70;0.70;;;17.80;99.90;;;-143.50;100.00;58913.53;4983996;28;20452;-74
2021/06/29 04:04:51;;;;;;;0.70;0.70;;;17.80;99.90;;;-143.50;100.00;58913.53;4994484;28;20416;-74
2021/06/29 04:07:18;;;;;;;0.70;0.60;;;17.80;99.90;;;-143.50;100.00;58913.53;5025550;28;20449;-73
2021/06/29 04:09:47;;;;;;;0.70;0.60;;;17.80;99.90;;;-143.50;100.00;58913.53;4993217;28;20497;-74
2021/06/29 04:12:16;;;;;;;0.73;0.70;;;17.80;99.90;;;-143.50;100.00;58913.53;4993099;28;20533;-73
2021/06/29 04:14:43;;;;;;;0.70;0.60;;;17.80;99.90;;;-143.50;100.00;58913.53;4995973;28;20458;-73
2021/06/29 04:17:11;;;;;;;0.70;0.60;;;17.90;99.90;;;-143.50;100.00;58913.53;4994129;28;20434;-73
2021/06/29 04:19:40;;;;;;;0.70;0.70;;;18.00;99.90;;;-143.50;100.00;58913.53;4990187;28;20418;-74
2021/06/29 04:22:09;;;;;;;0.70;0.70;;;18.10;99.90;;;-143.50;100.00;58913.53;4995208;28;20925;-73
2021/06/29 04:24:37;;;;;;;0.70;0.60;;;18.00;99.90;;;-143.50;100.00;58913.53;5009173;28;20486;-73
2021/06/29 04:27:08;;;;;;;0.70;0.60;;;18.00;99.90;;;-143.50;100.00;58913.53;4993565;28;20410;-73
2021/06/29 04:29:36;;;;;;;0.70;0.60;;;18.10;99.90;;;-143.50;100.00;58913.53;4977567;28;20443;-73
2021/06/29 04:32:04;;;;;;;0.70;0.70;;;18.10;99.90;;;-143.50;100.00;58913.53;4993200;28;20446;-73
2021/06/29 04:34:32;;;;;;;0.80;0.77;;;18.10;99.90;;;-143.50;100.00;58913.53;4992936;28;20438;-73
2021/06/29 04:37:01;;;;;;;0.70;0.60;;;18.10;99.90;;;-143.50;100.00;58913.53;4992613;28;20441;-73
2021/06/29 04:39:29;;;;;;;0.70;0.60;;;18.10;99.90;;;-143.50;100.00;58913.53;4991790;28;20505;-73
2021/06/29 04:41:57;;;;;;;0.80;0.70;;;18.10;99.90;;;-143.50;100.00;58913.53;4992897;28;20435;-74
2021/06/29 04:44:25;;;;;;;0.70;0.70;;;18.20;99.90;;;-143.50;100.00;58913.53;4993366;28;20419;-73
2021/06/29 04:46:55;;;;;;;0.70;0.70;;;18.20;99.90;;;-143.50;100.00;58913.53;4993444;28;20473;-73
2021/06/29 04:49:26;;;;;;;4.03;1.53;;;18.30;99.90;;;-143.50;100.00;58913.53;5025106;28;20449;-73
2021/06/29 04:51:54;;;;;;;0.70;0.60;;;18.40;99.90;;;-143.50;100.00;58913.53;4993073;28;20497;-73
2021/06/29 04:54:21;;;;;;;0.70;0.60;;;18.40;99.90;;;-143.50;100.00;58913.53;4993251;28;21887;-73
2021/06/29 04:56:49;;;;;;;0.70;0.60;;;18.40;99.90;;;-143.50;100.00;58913.53;4993691;28;20455;-73
2021/06/29 04:59:17;;;;;;;0.70;0.70;;;18.40;99.90;;;-143.50;100.00;58913.53;4997654;28;20569;-73
2021/06/29 05:01:46;;;;;;;0.70;0.70;;;18.40;99.90;;;-143.50;100.00;58913.53;4995892;28;20442;-73
2021/06/29 05:04:13;;;;;;;0.70;0.60;;;18.40;99.90;;;-143.50;100.00;58913.53;4997654;28;20457;-73
2021/06/29 05:06:41;;;;;;;0.70;0.70;;;18.40;99.90;;;-143.50;100.00;58913.53;4996463;28;20502;-73
2021/06/29 05:09:09;;;;;;;0.70;0.60;;;18.50;99.90;;;-143.50;100.00;58913.53;4994401;28;20458;-73
2021/06/29 05:11:37;;;;;;;0.70;0.60;;;18.50;99.90;;;-143.50;100.00;58913.53;4996211;28;20789;-73
2021/06/29 05:14:04;;;;;;;0.70;0.60;;;18.50;99.90;;;-143.50;100.00;58913.53;4997004;28;20442;-73
2021/06/29 05:16:32;;;;;;;0.70;0.63;;;18.60;99.90;;;-143.50;100.00;58913.53;4997449;28;20455;-73
2021/06/29 05:19:02;;;;;;;0.80;0.70;;;18.60;99.90;;;-143.50;100.00;58913.53;4996684;28;20561;-73
2021/06/29 05:21:30;;;;;;;0.70;0.70;;;18.60;99.90;;;-143.50;100.00;58913.53;4996386;28;20473;-73
2021/06/29 05:24:00;;;;;;;0.77;0.67;;;18.70;99.90;;;-143.50;100.00;58913.53;4980266;28;20470;-73
2021/06/29 05:26:28;;;;;;;0.80;0.80;;;18.70;99.90;;;-143.50;100.00;58913.53;4995811;28;20437;-73
2021/06/29 05:28:55;;;;;;;0.70;0.60;;;18.80;99.90;;;-143.50;100.00;58913.53;4996697;28;20512;-74
2021/06/29 05:31:23;;;;;;;0.70;0.70;;;18.90;99.90;;;-143.50;100.00;58913.53;4997119;28;20488;-73
2021/06/29 05:33:51;;;;;;;0.70;0.60;;;19.00;99.90;;;-143.50;100.00;58913.53;4997450;28;20477;-73
2021/06/29 05:36:20;;;;;;;0.80;0.70;;;19.10;99.90;;;-143.50;100.00;58913.53;4996480;28;20438;-74
2021/06/29 05:38:47;;;;;;;0.77;0.70;;;19.20;99.90;;;-143.50;100.00;58913.53;4995592;28;20466;-73
2021/06/29 05:41:15;;;;;;;0.80;0.70;;;19.30;99.90;;;-143.50;100.00;58913.53;4994906;28;20485;-73
2021/06/29 05:43:42;;;;;;;0.70;0.70;;;19.40;99.90;;;-143.50;100.00;58913.53;4997220;28;20438;-74
2021/06/29 05:46:10;;;;;;;0.70;0.60;;;19.50;99.90;;;-143.50;100.00;58913.53;4996769;28;20508;-74
2021/06/29 05:48:38;;;;;;;0.70;0.60;;;19.70;99.90;;;-143.50;100.00;58913.53;4996538;28;20450;-74
2021/06/29 05:51:07;;;;;;;0.70;0.60;;;19.70;99.90;;;-143.50;100.00;58913.53;4995808;28;20401;-74
2021/06/29 05:53:37;;;;;;;0.70;0.60;;;19.80;99.90;;;-143.50;100.00;58913.53;4995789;28;21005;-74
2021/06/29 05:56:06;;;;;;;0.70;0.70;;;19.80;99.90;;;-143.50;100.00;58913.53;4994529;28;20849;-74
2021/06/29 05:58:34;;;;;;;0.70;0.67;;;19.80;99.90;;;-143.50;100.00;58913.53;5012481;28;20445;-74
2021/06/29 06:01:04;;;;;;;0.70;0.70;;;19.90;99.90;;;-143.50;100.00;58913.53;4996206;28;20988;-74
2021/06/29 06:03:36;;;;;;;0.70;0.70;;;19.80;99.90;;;-143.50;100.00;58913.53;4996715;28;20422;-74
2021/06/29 06:06:04;;;;;;;0.70;0.60;;;19.70;99.90;;;-143.50;100.00;58913.53;4995334;28;20820;-74
2021/06/29 06:08:31;;;;;;;0.80;0.70;;;19.70;99.90;;;-143.50;100.00;58913.53;4994869;28;20450;-74
2021/06/29 06:11:00;;;;;;;0.70;0.70;;;19.70;99.90;;;-143.50;100.00;58913.53;4978380;28;20421;-74
2021/06/29 06:13:28;;;;;;;0.70;0.60;;;19.80;99.90;;;-143.50;100.00;58913.53;4995877;28;20517;-74
2021/06/29 06:15:56;;;;;;;0.70;0.60;;;19.80;99.90;;;-143.50;100.00;58913.53;4995340;28;20529;-74
2021/06/29 06:18:24;;;;;;;0.70;0.60;;;19.80;99.90;;;-143.50;100.00;58913.53;4995938;28;20553;-74
2021/06/29 06:20:52;;;;;;;0.70;0.60;;;19.80;99.90;;;-143.50;100.00;58913.53;4994886;28;20446;-74
2021/06/29 06:23:20;;;;;;;0.70;0.60;;;19.90;99.90;;;-143.50;100.00;58913.53;4994185;28;20468;-74
2021/06/29 06:25:48;;;;;;;0.80;0.70;;;20.00;99.90;;;-143.50;100.00;58913.53;4995750;28;20406;-74
2021/06/29 06:28:17;;;;;;;0.70;0.70;;;20.00;99.90;;;-143.50;100.00;58913.53;4998271;28;20421;-74
2021/06/29 06:30:44;;;;;;;0.70;0.60;;;20.00;99.90;;;-143.50;100.00;58913.53;4995579;28;20402;-74
2021/06/29 06:33:12;;;;;;;0.70;0.60;;;20.10;99.90;;;-143.50;100.00;58913.53;4995253;28;20510;-74
2021/06/29 06:35:40;;;;;;;0.70;0.70;;;20.10;99.90;;;-143.50;100.00;58913.53;4994943;28;20765;-73
2021/06/29 06:38:07;;;;;;;0.70;0.70;;;20.10;99.90;;;-143.50;100.00;58913.53;4995325;28;20788;-74
2021/06/29 06:40:36;;;;;;;0.70;0.60;;;20.20;99.90;;;-143.50;100.00;58913.53;4994348;28;20430;-74
2021/06/29 06:43:04;;;;;;;0.70;0.70;;;20.20;99.90;;;-143.50;100.00;58913.53;4995456;28;20417;-73
2021/06/29 06:45:33;;;;;;;0.70;0.60;;;20.20;99.90;;;-143.50;100.00;58913.53;4996001;28;20454;-74
2021/06/29 06:48:01;;;;;;;0.70;0.70;;;20.20;99.90;;;-143.50;100.00;58913.53;4994132;28;20516;-73
2021/06/29 06:50:32;;;;;;;0.70;0.60;;;20.20;99.90;;;-143.50;100.00;58913.53;4994492;28;20398;-73
2021/06/29 06:53:00;;;;;;;0.70;0.70;;;20.40;99.90;;;-143.50;100.00;58913.53;4995997;28;20461;-73
2021/06/29 06:55:28;;;;;;;0.70;0.70;;;20.50;99.90;;;-143.50;100.00;58913.53;4994081;28;20423;-72
2021/06/29 06:57:56;;;;;;;0.80;0.73;;;20.40;99.90;;;-143.50;100.00;58913.53;4995171;28;20943;-72
2021/06/29 07:00:26;;;;;;;0.70;0.60;;;20.50;99.90;;;-143.50;100.00;58913.53;4995045;28;20489;-72
2021/06/29 07:02:56;;;;;;;0.70;0.70;;;20.50;99.90;;;-143.50;100.00;58913.53;4994467;28;20778;-72
2021/06/29 07:05:25;;;;;;;0.70;0.60;;;20.60;99.90;;;-143.50;100.00;58913.53;4993924;28;20460;-72
2021/06/29 07:07:53;;;;;;;0.70;0.60;;;20.60;99.90;;;-143.50;100.00;58913.53;4994826;28;20467;-72
2021/06/29 07:10:21;;;;;;;1.10;1.00;;;20.70;99.90;;;-143.50;100.00;58913.53;4993978;28;20405;-72
2021/06/29 07:12:49;;;;;;;0.70;0.63;;;20.70;99.90;;;-143.50;100.00;58913.53;4995351;28;20538;-72
2021/06/29 07:15:17;;;;;;;0.77;0.67;;;20.70;99.90;;;-143.50;100.00;58913.53;4994174;28;20413;-72
2021/06/29 07:17:44;;;;;;;0.70;0.60;;;20.70;99.90;;;-143.50;100.00;58913.53;4993176;28;20430;-72
2021/06/29 07:20:14;;;;;;;0.70;0.60;;;20.70;99.90;;;-143.50;100.00;58913.53;4993612;28;20524;-71
2021/06/29 07:22:42;;;;;;;0.73;0.70;;;20.70;99.90;;;-143.50;100.00;58913.53;4994554;28;20454;-72
2021/06/29 07:25:10;;;;;;;0.70;0.60;;;20.70;99.90;;;-143.50;100.00;58913.53;4994331;28;20858;-72
2021/06/29 07:27:39;;;;;;;0.80;0.70;;;20.80;99.90;;;-143.50;100.00;58913.53;4994991;28;20419;-72
2021/06/29 07:30:09;;;;;;;0.70;0.60;;;21.00;99.90;;;-143.50;100.00;58913.53;4995180;28;20804;-72
2021/06/29 07:32:41;;;;;;;0.70;0.60;;;21.30;99.90;;;-143.50;100.00;58913.53;4994131;28;20419;-71
2021/06/29 07:35:10;;;;;;;0.70;0.60;;;21.50;99.90;;;-143.50;100.00;58913.53;4995232;28;20411;-72
2021/06/29 07:37:39;;;;;;;0.70;0.60;;;21.60;99.90;;;-143.50;100.00;58913.53;4993959;28;20415;-71
2021/06/29 07:40:08;;;;;;;0.70;0.60;;;21.60;99.90;;;-143.50;100.00;58913.53;4994013;28;20451;-72
2021/06/29 07:42:36;;;;;;;0.70;0.60;;;21.60;99.90;;;-143.50;100.00;58913.53;4994178;28;20409;-72
2021/06/29 07:45:07;;;;;;;0.70;0.60;;;21.70;99.90;;;-143.50;100.00;58913.53;4994609;28;20521;-72
2021/06/29 07:47:34;;;;;;;0.70;0.60;;;21.80;99.90;;;-143.50;100.00;58913.53;4994774;28;20398;-72
2021/06/29 07:50:04;;;;;;;0.70;0.60;;;21.90;99.90;;;-143.50;100.00;58913.53;4994540;28;20423;-71
2021/06/29 07:52:33;;;;;;;0.70;0.60;;;22.10;99.90;;;-143.50;100.00;58913.53;4993467;28;20799;-73
2021/06/29 07:55:03;;;;;;;0.70;0.60;;;22.20;99.90;;;-143.50;100.00;58913.53;4994027;28;20465;-72
2021/06/29 07:57:30;;;;;;;0.80;0.70;;;22.30;99.90;;;-143.50;100.00;58913.53;4992388;28;20407;-71
2021/06/29 07:59:58;;;;;;;0.70;0.60;;;22.30;99.90;;;-143.50;100.00;58913.53;4993719;28;20451;-72
2021/06/29 08:02:26;;;;;;;0.70;0.60;;;22.20;99.90;;;-143.50;100.00;58913.53;4993881;28;20447;-71
2021/06/29 08:04:53;;;;;;;0.80;0.70;;;22.20;99.90;;;-143.50;100.00;58913.53;4993048;28;20431;-72
2021/06/29 08:07:23;;;;;;;0.70;0.60;;;22.20;99.90;;;-143.50;100.00;58913.53;4994542;28;20447;-72
2021/06/29 08:09:50;;;;;;;0.70;0.60;;;22.20;99.90;;;-143.50;100.00;58913.53;4993549;28;20431;-73
2021/06/29 08:12:20;;;;;;;0.70;0.60;;;22.20;99.90;;;-143.50;100.00;58913.53;4994231;28;20844;-72
2021/06/29 08:14:47;;;;;;;0.70;0.60;;;22.30;99.90;;;-143.50;100.00;58913.53;4993239;28;20433;-71
2021/06/29 08:17:15;;;;;;;0.70;0.60;;;22.40;99.90;;;-143.50;100.00;58913.53;4993936;28;20442;-71
2021/06/29 08:19:43;;;;;;;0.70;0.60;;;22.40;99.90;;;-143.50;100.00;58913.53;4993513;28;20484;-72
2021/06/29 08:22:10;;;;;;;0.70;0.60;;;22.60;99.90;;;-143.50;100.00;58913.53;4994058;28;20442;-72
2021/06/29 08:24:38;;;;;;;0.80;0.70;;;22.80;99.90;;;-143.50;100.00;58913.53;4993695;28;20443;-72
2021/06/29 08:27:06;;;;;;;0.90;0.80;;;23.10;99.90;;;-143.50;100.00;58913.53;4992843;28;20443;-72
2021/06/29 08:29:35;;;;;;;0.70;0.60;;;23.20;99.90;;;-143.50;100.00;58913.53;4993244;28;20477;-72
2021/06/29 08:32:03;;;;;;;0.70;0.60;;;23.30;99.90;;;-143.50;100.00;58913.53;4992938;28;20419;-72
2021/06/29 08:34:31;;;;;;;0.70;0.60;;;23.60;99.90;;;-143.50;100.00;58913.53;4993845;28;20753;-72
2021/06/29 08:36:58;;;;;;;0.73;0.60;;;24.00;99.90;;;-143.50;100.00;58913.53;4993506;28;20782;-73
2021/06/29 08:39:26;;;;;;;0.70;0.60;;;24.20;99.90;;;-143.50;100.00;58913.53;4992582;28;20566;-72
2021/06/29 08:41:54;;;;;;;0.70;0.60;;;24.50;99.90;;;-143.50;100.00;58913.53;4992341;28;20445;-72
2021/06/29 08:44:23;;;;;;;0.70;0.60;;;24.70;99.90;;;-143.50;100.00;58913.53;4993784;28;20433;-72
2021/06/29 08:46:51;;;;;;;0.70;0.50;;;25.00;99.90;;;-143.50;100.00;58913.53;4992093;28;20422;-72
2021/06/29 08:49:20;;;;;;;0.70;0.50;;;25.40;99.90;;;-143.50;100.00;58913.53;4993709;28;20430;-72
2021/06/29 08:51:51;;;;;;;0.70;0.60;;;25.50;99.90;;;-143.50;100.00;58913.53;4993335;28;20465;-73
2021/06/29 08:54:21;;;;;;;0.70;0.60;;;25.20;99.90;;;-143.50;100.00;58913.53;4992803;28;20471;-72
2021/06/29 08:56:48;;;;;;;0.70;0.60;;;24.80;99.90;;;-143.50;100.00;58913.53;4992058;28;20415;-72
2021/06/29 08:59:16;;;;;;;0.70;0.50;;;24.60;99.90;;;-143.50;100.00;58913.53;4992036;28;20542;-73
2021/06/29 09:01:44;;;;;;;0.70;0.60;;;24.60;99.90;;;-143.50;100.00;58913.53;4991890;28;20785;-73
2021/06/29 09:04:14;;;;;;;0.70;0.60;;;24.80;99.90;;;-143.50;100.00;58913.53;4993550;28;20435;-73
2021/06/29 09:06:43;;;;;;;0.70;0.50;;;25.40;99.90;;;-143.50;100.00;58913.53;4992916;28;20463;-73
2021/06/29 09:09:26;;;;;;;1.07;0.80;;;25.80;99.90;;;-143.50;100.00;58913.53;4993683;28;20450;-73
2021/06/29 09:11:54;;;;;;;0.70;0.50;;;25.80;99.90;;;-143.50;100.00;58913.53;4992072;28;20411;-73
2021/06/29 09:14:29;;;;;;;0.70;0.60;;;25.90;99.90;;;-143.50;100.00;58913.53;4993338;28;20537;-72
2021/06/29 09:17:17;;;;;;;0.70;0.50;;;26.00;99.90;;;-143.50;100.00;58913.53;4993362;28;20900;-73
2021/06/29 09:19:47;;;;;;;0.70;0.53;;;26.10;99.90;;;-143.50;100.00;58913.53;4974089;28;20832;-73
2021/06/29 09:22:32;;;;;;;0.70;0.60;;;26.40;99.90;;;-143.50;100.00;58913.53;4989100;28;20416;-73
2021/06/29 09:25:01;;;;;;;0.70;0.53;;;26.60;99.90;;;-143.50;100.00;58913.53;4973323;28;20427;-74
2021/06/29 09:27:42;;;;;;;0.70;0.50;;;27.20;99.90;;;-143.50;100.00;58913.53;4974189;28;20475;-74
2021/06/29 09:30:31;;;;;;;0.70;0.50;;;27.90;99.90;;;-143.50;100.00;58913.53;4981356;28;20912;-75
2021/06/29 09:33:03;;;;;;;0.70;0.50;;;28.40;99.90;;;-143.50;100.00;58913.53;4983756;28;20458;-73
2021/06/29 09:35:33;;;;;;;0.70;0.50;;;28.60;99.90;;;-143.50;100.00;58913.53;4993740;28;20442;-73
2021/06/29 09:38:23;;;;;;;0.70;0.50;;;28.50;99.90;;;-143.50;100.00;58913.53;4993160;28;20455;-73
2021/06/29 09:40:59;;;;;;;0.70;0.50;;;28.50;99.90;;;-143.50;100.00;58913.53;4992754;28;20459;-74
2021/06/29 09:43:31;;;;;;;0.70;0.60;;;28.50;99.90;;;-143.50;100.00;58913.53;4994536;28;20446;-74
2021/06/29 09:46:02;;;;;;;0.70;0.60;;;28.20;99.90;;;-143.50;100.00;58913.53;4995814;28;20769;-73
2021/06/29 09:48:39;;;;;;;0.70;0.50;;;28.20;97.10;;;-143.50;100.00;58913.53;4995389;28;20931;-73
2021/06/29 09:51:18;;;;;;;0.70;0.50;;;27.90;97.00;;;-143.50;100.00;58913.53;5011147;28;20430;-74
2021/06/29 09:53:48;;;;;;;0.70;0.50;;;27.50;96.90;;;-143.50;100.00;58913.53;4996828;28;20446;-74
2021/06/29 09:56:18;;;;;;;0.70;0.50;;;27.60;95.30;;;-143.50;100.00;58913.53;4995634;28;20445;-73
2021/06/29 09:58:50;;;;;;;0.70;0.50;;;27.70;94.40;;;-143.50;100.00;58913.53;4990961;28;20763;-74
2021/06/29 10:01:20;;;;;;;0.70;0.50;;;27.90;94.60;;;-143.50;100.00;58913.53;4995987;28;20478;-74
2021/06/29 10:03:53;;;;;;;0.80;0.70;;;28.00;92.00;;;-143.50;100.00;58913.53;4997099;28;20802;-73
2021/06/29 10:06:24;;;;;;;0.70;0.50;;;28.20;90.30;;;-143.50;100.00;58913.53;4996085;28;20784;-74
2021/06/29 10:08:54;;;;;;;0.70;0.50;;;29.10;88.30;;;-143.50;100.00;58913.53;4994674;28;20454;-74
2021/06/29 10:11:27;;;;;;;0.70;0.50;;;30.10;82.10;;;-143.50;100.00;58913.53;4995885;28;20419;-73
2021/06/29 10:13:59;;;;;;;0.70;0.50;;;30.90;71.60;;;-143.50;100.00;58913.53;4997204;28;20430;-74